Country
Station

 

Weather  for  Price, Carbon County Airport  -  United States    United States

  
6 °C (43 °F)
    
 
 

Current METAR for Price, Carbon County Airport is :

KPUC 211453Z AUTO 00000KT 10SM SCT049 06/03 A2968 RMK AO2 SLP043 T00610028 58001

 

This is a report for Price, Carbon County Airport - United States.
 
The report was made 56 minutes ago, at 14:53 UTC .
The wind was calm.
 
The temperature was 6 °C (43 °F), with a dew-point at 3 °C (37 °F).
The atmospheric pressure was 1005 hPa (29.68 inHg).
The relative humidity was 81.0%.
 
There were scattered clouds at a height of 1494 meters (4900 feet).
 
The overall visibility was 16.1 kilometers (10.0 miles).
 

 
 
 
 

Country :   A   B   C   D   E   F   G   H   I   J   K   L   M   N   O   P   Q   R   S   T   U   V   W   Y   Z

 

Site Info  |  Disclaimer  |  Credits  |  Privacy
Contact us  |  Add to favorites
© 2013-2019 METARs - All rights reserved